Time;durP1;ratioP1;P1;durP2;ratioP2;P2;SDS_P1;SDS_P2;PMS_P1;PMS_P2;Temp;Humidity;BMP_temperature;BMP_pressure;BME280_temperature;BME280_humidity;BME280_pressure;Samples;Min_cycle;Max_cycle;Signal;HPM_P1;HPM_P2
2021/11/18 00:01:04;;;;;;;28.30;9.52;;;;;;;9.82;83.04;102441.56;5056943;28;20049;-63
2021/11/18 00:03:32;;;;;;;24.60;8.30;;;;;;;9.98;82.75;102434.22;5056177;28;20044;-62
2021/11/18 00:06:01;;;;;;;30.38;8.77;;;;;;;10.29;81.71;102432.47;5053241;28;20052;-63
2021/11/18 00:08:28;;;;;;;30.90;7.95;;;;;;;9.99;82.30;102435.84;5052755;28;20063;-63
2021/11/18 00:10:58;;;;;;;34.83;8.75;;;;;;;10.00;82.81;102437.53;5054106;28;20136;-63
2021/11/18 00:13:28;;;;;;;25.02;8.02;;;;;;;10.00;82.00;102438.38;5037292;28;20053;-62
2021/11/18 00:15:56;;;;;;;26.80;9.07;;;;;;;9.98;82.72;102443.31;5054604;28;20057;-61
2021/11/18 00:18:27;;;;;;;23.58;7.93;;;;;;;9.79;83.24;102439.34;5052667;28;20049;-62
2021/11/18 00:20:58;;;;;;;25.52;8.63;;;;;;;9.78;83.25;102443.16;5057759;28;20057;-63
2021/11/18 00:23:29;;;;;;;21.13;7.45;;;;;;;9.71;83.41;102439.03;5043151;28;20504;-63
2021/11/18 00:25:56;;;;;;;26.58;8.35;;;;;;;9.80;83.55;102440.16;5052549;28;20056;-61
2021/11/18 00:28:24;;;;;;;24.60;8.25;;;;;;;9.74;83.55;102433.81;5052483;28;20052;-62
2021/11/18 00:30:51;;;;;;;27.23;8.27;;;;;;;9.57;83.93;102432.31;5037853;28;20060;-62
2021/11/18 00:33:20;;;;;;;23.23;8.05;;;;;;;9.77;83.83;102437.94;5031874;28;20053;-62
2021/11/18 00:35:48;;;;;;;24.92;8.45;;;;;;;9.55;84.25;102429.00;5033134;28;20053;-62
2021/11/18 00:38:19;;;;;;;21.80;8.30;;;;;;;9.56;84.32;102428.75;5064084;28;20052;-61
2021/11/18 00:40:49;;;;;;;22.50;8.52;;;;;;;9.62;84.51;102419.44;5064860;28;20045;-63
2021/11/18 00:43:18;;;;;;;23.25;7.82;;;;;;;9.71;84.05;102415.06;5038129;28;20041;-63
2021/11/18 00:45:46;;;;;;;23.98;8.15;;;;;;;9.75;83.65;102407.09;5034679;28;20615;-62
2021/11/18 00:48:14;;;;;;;25.13;7.55;;;;;;;9.66;83.47;102400.47;5053887;28;20416;-63
2021/11/18 00:50:54;;;;;;;28.58;9.00;;;;;;;9.67;83.12;102402.97;5052934;28;20052;-63
2021/11/18 00:53:44;;;;;;;22.08;8.32;;;;;;;9.96;82.50;102398.69;5086780;28;20503;-62
2021/11/18 00:56:17;;;;;;;24.55;8.00;;;;;;;10.09;81.42;102397.41;5053698;28;20049;-62
2021/11/18 00:58:45;;;;;;;23.05;8.60;;;;;;;9.97;81.01;102397.59;5037515;28;20088;-62
2021/11/18 01:01:15;;;;;;;22.52;7.30;;;;;;;9.85;81.42;102401.69;5076898;28;20361;-60
2021/11/18 01:03:44;;;;;;;27.77;9.43;;;;;;;9.79;81.50;102403.56;5051072;28;20050;-61
2021/11/18 01:06:11;;;;;;;22.52;8.38;;;;;;;9.90;81.46;102413.50;5046532;28;20045;-61
2021/11/18 01:08:38;;;;;;;27.23;9.10;;;;;;;9.97;80.84;102403.09;5037026;28;20053;-63
2021/11/18 01:11:12;;;;;;;21.55;8.15;;;;;;;9.79;81.31;102402.72;5038792;28;20080;-62
2021/11/18 01:13:40;;;;;;;26.85;8.02;;;;;;;9.88;81.18;102412.97;5038763;28;20056;-61
2021/11/18 01:16:09;;;;;;;23.40;7.93;;;;;;;9.91;80.78;102411.59;5037311;28;20041;-63
2021/11/18 01:18:36;;;;;;;21.73;7.85;;;;;;;9.64;81.29;102421.91;5038365;28;20041;-62
2021/11/18 01:21:05;;;;;;;24.70;8.35;;;;;;;9.42;82.80;102421.19;5070296;28;20050;-63
2021/11/18 01:23:36;;;;;;;26.48;10.07;;;;;;;9.23;83.99;102425.47;5020552;28;20042;-62
2021/11/18 01:26:05;;;;;;;28.73;9.18;;;;;;;9.29;84.22;102435.41;5038075;28;20050;-61
2021/11/18 01:28:32;;;;;;;22.35;8.43;;;;;;;9.13;84.32;102439.97;5020317;28;20041;-62
2021/11/18 01:31:00;;;;;;;30.25;8.40;;;;;;;9.19;84.39;102429.84;5036542;28;20072;-69
2021/11/18 01:33:28;;;;;;;24.10;8.35;;;;;;;9.22;84.08;102429.31;5036555;28;20049;-61
2021/11/18 01:35:56;;;;;;;25.02;8.55;;;;;;;9.27;83.97;102424.69;5037280;28;20493;-65
2021/11/18 01:38:25;;;;;;;26.48;9.02;;;;;;;9.55;83.15;102418.84;5048949;28;20053;-61
2021/11/18 01:41:12;;;;;;;25.85;8.80;;;;;;;9.54;82.51;102430.91;5038777;28;20045;-61
2021/11/18 01:43:45;;;;;;;26.00;8.50;;;;;;;9.53;82.17;102425.69;5052491;28;20068;-62
2021/11/18 01:46:18;;;;;;;24.23;8.70;;;;;;;9.35;82.31;102431.59;5052599;28;20080;-62
2021/11/18 01:48:50;;;;;;;26.20;8.98;;;;;;;9.45;82.35;102438.00;5003504;28;20061;-61
2021/11/18 01:51:23;;;;;;;32.85;10.02;;;;;;;9.58;81.83;102442.22;5035667;28;20045;-62
2021/11/18 01:53:50;;;;;;;23.45;8.80;;;;;;;9.56;81.74;102441.66;5020234;28;20409;-62
2021/11/18 01:56:24;;;;;;;21.42;8.10;;;;;;;9.61;81.15;102437.03;5036388;28;20050;-61
2021/11/18 01:58:56;;;;;;;26.05;8.32;;;;;;;9.78;80.50;102445.94;5036852;28;20057;-61
2021/11/18 02:01:46;;;;;;;17.35;7.47;;;;;;;9.71;80.52;102452.78;5039068;28;20049;-62
2021/11/18 02:04:53;;;;;;;22.80;7.88;;;;;;;9.58;80.54;102450.47;5089316;28;20048;-62
2021/11/18 02:07:22;;;;;;;26.42;8.40;;;;;;;9.69;80.29;102446.72;5089023;28;20048;-63
2021/11/18 02:09:51;;;;;;;20.65;8.45;;;;;;;9.69;79.81;102444.75;5054807;28;20082;-63
2021/11/18 02:12:28;;;;;;;20.15;9.23;;;;;;;9.33;80.66;102447.56;5044468;28;20056;-61
2021/11/18 02:14:56;;;;;;;21.17;8.38;;;;;;;9.53;80.73;102434.78;5035734;28;20057;-62
2021/11/18 02:17:25;;;;;;;23.50;9.10;;;;;;;9.38;80.31;102439.34;5036649;28;20049;-63
2021/11/18 02:19:57;;;;;;;20.73;8.43;;;;;;;9.38;80.45;102450.34;5037188;28;20519;-61
2021/11/18 02:22:26;;;;;;;26.55;9.00;;;;;;;9.26;81.18;102446.94;5019331;28;20288;-61
2021/11/18 02:25:00;;;;;;;24.05;9.63;;;;;;;9.25;80.92;102437.03;5036466;28;20053;-62
2021/11/18 02:27:31;;;;;;;21.90;8.55;;;;;;;9.45;80.60;102440.75;5019310;28;20054;-63
2021/11/18 02:29:59;;;;;;;22.05;8.57;;;;;;;9.58;79.93;102448.56;5036471;28;20409;-63
2021/11/18 02:32:32;;;;;;;24.33;8.60;;;;;;;9.54;79.86;102443.84;5040160;28;20472;-63
2021/11/18 02:35:11;;;;;;;23.73;8.77;;;;;;;9.59;79.79;102441.16;5035496;28;20064;-61
2021/11/18 02:37:40;;;;;;;21.77;9.20;;;;;;;9.61;79.40;102444.44;5019506;28;20046;-61
2021/11/18 02:40:10;;;;;;;25.48;8.13;;;;;;;9.43;79.84;102444.88;5096731;28;20055;-62
2021/11/18 02:42:39;;;;;;;20.33;7.83;;;;;;;9.45;79.85;102448.19;5058096;28;20052;-62
2021/11/18 02:45:09;;;;;;;;;;;;;;;9.49;79.85;102452.06;5030055;28;20049;-62
2021/11/18 02:47:38;;;;;;;29.67;8.82;;;;;;;9.26;80.48;102455.19;5062522;28;19928;-61
2021/11/18 02:50:09;;;;;;;21.45;8.30;;;;;;;9.32;80.39;102456.88;5074538;28;20049;-61
2021/11/18 02:52:44;;;;;;;24.80;8.75;;;;;;;9.46;79.72;102445.19;5074853;28;20051;-61
2021/11/18 02:55:19;;;;;;;28.27;7.97;;;;;;;9.40;79.78;102450.88;5055260;28;20063;-62
2021/11/18 02:57:47;;;;;;;32.20;9.90;;;;;;;9.29;80.27;102441.75;5038584;28;20041;-62
2021/11/18 03:00:19;;;;;;;21.83;8.98;;;;;;;9.51;80.04;102450.72;5054397;28;20392;-62
2021/11/18 03:02:48;;;;;;;23.98;9.00;;;;;;;9.22;80.35;102449.41;5079479;28;20049;-63
2021/11/18 03:05:18;;;;;;;22.35;9.02;;;;;;;8.98;81.23;102461.78;5034920;28;20049;-62
2021/11/18 03:07:49;;;;;;;25.25;8.77;;;;;;;8.73;82.28;102467.06;5039076;28;20400;-62
2021/11/18 03:10:20;;;;;;;19.50;8.77;;;;;;;8.74;82.80;102469.53;5088059;28;20057;-61
2021/11/18 03:12:47;;;;;;;;;;;;;;;9.00;81.82;102456.88;5054629;28;20051;-62
2021/11/18 03:15:15;;;;;;;22.55;9.13;;;;;;;8.93;81.94;102470.00;5038238;28;19924;-61
2021/11/18 03:17:43;;;;;;;23.73;9.23;;;;;;;9.02;81.50;102468.44;5054639;28;20080;-61
2021/11/18 03:20:20;;;;;;;20.33;8.50;;;;;;;8.94;81.71;102480.72;5034813;28;20497;-60
2021/11/18 03:22:48;;;;;;;20.55;9.05;;;;;;;9.02;81.76;102480.28;5033927;28;20065;-62
2021/11/18 03:25:25;;;;;;;28.63;10.73;;;;;;;8.78;82.07;102478.09;5068865;28;20053;-61
2021/11/18 03:28:00;;;;;;;28.65;9.55;;;;;;;8.78;82.48;102469.84;5019298;28;20088;-61
2021/11/18 03:30:32;;;;;;;25.08;9.35;;;;;;;8.92;81.76;102469.19;5034094;28;20064;-62
2021/11/18 03:33:12;;;;;;;23.92;8.90;;;;;;;9.14;81.38;102466.34;5047928;28;20049;-62
2021/11/18 03:35:40;;;;;;;20.00;8.85;;;;;;;9.32;80.56;102465.13;5054146;28;20052;-65
2021/11/18 03:38:08;;;;;;;22.63;9.40;;;;;;;9.22;80.06;102476.88;5053339;28;20060;-62
2021/11/18 03:40:37;;;;;;;20.48;8.73;;;;;;;9.23;80.12;102472.19;5054884;28;20048;-61
2021/11/18 03:43:09;;;;;;;20.35;8.98;;;;;;;9.20;79.60;102469.97;5072761;28;20053;-61
2021/11/18 03:45:38;;;;;;;22.83;9.35;;;;;;;9.07;80.01;102466.56;5033466;28;20056;-62
2021/11/18 03:48:07;;;;;;;27.85;9.95;;;;;;;9.22;80.00;102465.06;5050162;28;20053;-63
2021/11/18 03:50:37;;;;;;;22.92;10.18;;;;;;;9.24;79.75;102469.19;5067166;28;20057;-62
2021/11/18 03:53:05;;;;;;;23.50;9.70;;;;;;;9.15;79.72;102470.78;5034062;28;20061;-63
2021/11/18 03:55:33;;;;;;;21.75;10.80;;;;;;;9.02;79.76;102474.78;5018627;28;20041;-62
2021/11/18 03:58:01;;;;;;;22.80;9.95;;;;;;;8.98;80.07;102479.13;5033290;28;20059;-63
2021/11/18 04:00:31;;;;;;;23.83;10.52;;;;;;;8.92;80.16;102485.66;5033334;28;20049;-63
2021/11/18 04:03:00;;;;;;;32.35;9.00;;;;;;;9.05;79.75;102493.50;5042657;28;20538;-62
2021/11/18 04:05:33;;;;;;;26.75;10.23;;;;;;;8.88;79.97;102495.50;5052439;28;20440;-62
2021/11/18 04:08:01;;;;;;;30.48;11.02;;;;;;;8.52;81.49;102482.47;5066708;28;20429;-61
2021/11/18 04:10:31;;;;;;;23.35;10.55;;;;;;;8.40;82.42;102484.53;5033957;28;20056;-60
2021/11/18 04:12:59;;;;;;;30.63;9.25;;;;;;;8.72;81.73;102490.09;5016772;28;20057;-62
2021/11/18 04:15:28;;;;;;;27.98;10.45;;;;;;;8.79;81.47;102498.97;5035057;28;20056;-62
2021/11/18 04:17:59;;;;;;;20.23;9.35;;;;;;;8.83;80.84;102497.38;5021006;28;20049;-61
2021/11/18 04:20:33;;;;;;;24.88;9.02;;;;;;;8.74;81.28;102499.75;5037576;28;20056;-62
2021/11/18 04:23:02;;;;;;;27.95;9.75;;;;;;;8.36;82.42;102510.84;5036690;28;20056;-60
2021/11/18 04:25:32;;;;;;;25.75;10.20;;;;;;;8.52;82.50;102507.19;5086886;28;20049;-61
2021/11/18 04:28:00;;;;;;;26.23;9.85;;;;;;;8.46;82.75;102519.19;5048503;28;20055;-61
2021/11/18 04:30:38;;;;;;;24.50;10.70;;;;;;;8.71;82.09;102510.44;5034129;28;20389;-60
2021/11/18 04:33:27;;;;;;;21.85;10.27;;;;;;;8.47;82.41;102512.59;5020349;28;20065;-61
2021/11/18 04:35:56;;;;;;;25.13;9.82;;;;;;;8.60;82.23;102516.88;5049385;28;20424;-61
2021/11/18 04:38:26;;;;;;;21.88;10.48;;;;;;;8.51;82.17;102504.69;5034830;28;20381;-60
2021/11/18 04:40:54;;;;;;;22.70;9.30;;;;;;;8.74;81.51;102518.16;5044776;28;20072;-62
2021/11/18 04:43:23;;;;;;;23.45;9.35;;;;;;;8.68;81.52;102517.25;5032929;28;20465;-61
2021/11/18 04:45:55;;;;;;;26.58;9.85;;;;;;;8.40;81.86;102517.47;5067376;28;20045;-61
2021/11/18 04:48:23;;;;;;;25.55;10.18;;;;;;;8.71;81.14;102529.66;5033166;28;20421;-62
2021/11/18 04:50:51;;;;;;;21.35;9.00;;;;;;;8.76;80.72;102530.56;5016907;28;20068;-62
2021/11/18 04:53:19;;;;;;;21.20;9.80;;;;;;;8.59;80.36;102537.22;5034485;28;20060;-62
2021/11/18 04:55:47;;;;;;;18.35;9.50;;;;;;;8.67;80.60;102532.09;5033400;28;20501;-60
2021/11/18 04:58:15;;;;;;;20.20;9.30;;;;;;;8.82;80.08;102537.75;5034747;28;20076;-62
2021/11/18 05:00:49;;;;;;;22.88;9.55;;;;;;;8.74;79.76;102545.63;5049738;28;20057;-61
2021/11/18 05:03:18;;;;;;;22.77;10.18;;;;;;;8.69;79.95;102543.66;5071346;28;20049;-61
2021/11/18 05:05:46;;;;;;;21.77;9.27;;;;;;;8.81;79.84;102555.34;5067227;28;20531;-63
2021/11/18 05:08:14;;;;;;;21.02;9.77;;;;;;;8.92;79.39;102548.03;5043363;28;20062;-61
2021/11/18 05:10:44;;;;;;;22.77;10.07;;;;;;;8.89;79.03;102548.56;5034305;28;20054;-62
2021/11/18 05:13:17;;;;;;;21.40;9.57;;;;;;;8.85;78.97;102541.91;5033298;28;20049;-62
2021/11/18 05:15:54;;;;;;;22.20;10.00;;;;;;;8.68;79.45;102541.16;5032550;28;20159;-61
2021/11/18 05:18:22;;;;;;;21.60;10.65;;;;;;;8.63;79.90;102546.59;5017254;28;20055;-62
2021/11/18 05:20:50;;;;;;;23.88;10.20;;;;;;;8.56;80.09;102552.28;5032790;28;20729;-62
2021/11/18 05:23:18;;;;;;;25.52;10.65;;;;;;;8.44;80.71;102548.00;5032438;28;20053;-61
2021/11/18 05:25:56;;;;;;;26.10;10.43;;;;;;;8.47;80.38;102553.78;5049481;28;20057;-62
2021/11/18 05:28:23;;;;;;;25.67;10.07;;;;;;;8.51;80.23;102552.22;5049797;28;20068;-61
2021/11/18 05:30:52;;;;;;;25.77;10.07;;;;;;;8.65;80.15;102548.00;5037102;28;20060;-62
2021/11/18 05:33:22;;;;;;;19.67;9.18;;;;;;;8.73;79.05;102549.47;5046114;28;20056;-62
2021/11/18 05:35:50;;;;;;;28.73;10.77;;;;;;;8.62;79.65;102547.66;5038368;28;20048;-61
2021/11/18 05:38:20;;;;;;;23.10;9.85;;;;;;;8.60;79.68;102541.59;5049649;28;20299;-60
2021/11/18 05:40:50;;;;;;;25.83;10.50;;;;;;;8.50;79.72;102546.97;5038765;28;20092;-62
2021/11/18 05:43:22;;;;;;;24.20;9.38;;;;;;;8.49;80.07;102546.13;5055481;28;20049;-62
2021/11/18 05:45:51;;;;;;;24.35;9.85;;;;;;;8.72;79.15;102554.13;5068113;28;20048;-64
2021/11/18 05:48:19;;;;;;;20.20;10.20;;;;;;;8.72;79.09;102554.13;5055938;28;20049;-63
2021/11/18 05:50:53;;;;;;;19.75;9.45;;;;;;;8.51;79.67;102562.34;5068841;28;20058;-63
2021/11/18 05:53:26;;;;;;;20.52;9.40;;;;;;;8.74;79.26;102559.34;5043932;28;20048;-64
2021/11/18 05:55:54;;;;;;;22.73;9.43;;;;;;;8.52;79.65;102555.78;5055882;28;20064;-63
2021/11/18 05:58:23;;;;;;;23.58;10.98;;;;;;;8.37;79.91;102561.91;5045109;28;20373;-63
2021/11/18 06:00:51;;;;;;;24.90;9.65;;;;;;;8.62;79.72;102566.91;5058010;28;20091;-62
2021/11/18 06:03:22;;;;;;;19.73;9.60;;;;;;;8.65;79.16;102560.88;5054555;28;20057;-63
2021/11/18 06:05:49;;;;;;;26.55;10.13;;;;;;;8.61;79.23;102570.75;5035036;28;20049;-62
2021/11/18 06:08:17;;;;;;;24.67;9.55;;;;;;;8.60;79.15;102566.31;5078679;28;20045;-63
2021/11/18 06:10:45;;;;;;;26.08;9.25;;;;;;;8.47;79.83;102573.00;5038871;28;20049;-62
2021/11/18 06:13:13;;;;;;;25.13;9.50;;;;;;;8.59;79.56;102573.75;5021188;28;20416;-63
2021/11/18 06:15:42;;;;;;;23.77;9.88;;;;;;;8.74;78.86;102570.34;5036713;28;20061;-64
2021/11/18 06:18:11;;;;;;;21.52;9.13;;;;;;;8.53;79.47;102568.44;5035477;28;20075;-64
2021/11/18 06:20:39;;;;;;;21.92;9.50;;;;;;;8.56;79.65;102574.25;5037642;28;20405;-63
2021/11/18 06:23:09;;;;;;;21.73;9.17;;;;;;;8.50;79.56;102577.19;5051871;28;20049;-63
2021/11/18 06:25:40;;;;;;;23.77;10.05;;;;;;;8.42;80.32;102586.69;5071897;28;20042;-63
2021/11/18 06:28:09;;;;;;;21.77;9.35;;;;;;;8.27;80.08;102582.88;5046368;28;20045;-63
2021/11/18 06:30:47;;;;;;;24.63;9.20;;;;;;;8.16;80.79;102576.38;5055226;28;20053;-63
2021/11/18 06:33:16;;;;;;;22.92;8.82;;;;;;;8.11;81.33;102579.06;5056082;28;20045;-63
2021/11/18 06:35:44;;;;;;;22.40;9.02;;;;;;;8.13;81.78;102585.13;5047957;28;20049;-64
2021/11/18 06:38:31;;;;;;;23.58;9.43;;;;;;;7.93;81.48;102588.38;5053417;28;20055;-62
2021/11/18 06:41:00;;;;;;;27.48;9.57;;;;;;;7.92;82.36;102588.66;5031450;28;20049;-61
2021/11/18 06:43:28;;;;;;;25.98;9.45;;;;;;;7.79;82.19;102589.00;5018895;28;20050;-62
2021/11/18 06:45:55;;;;;;;21.75;9.27;;;;;;;7.82;83.08;102592.06;5037898;28;20042;-61
2021/11/18 06:48:31;;;;;;;22.80;9.73;;;;;;;7.91;82.48;102597.97;5027334;28;20053;-61
2021/11/18 06:51:12;;;;;;;22.13;9.00;;;;;;;8.19;81.46;102606.09;5057245;28;20072;-62
2021/11/18 06:53:42;;;;;;;26.05;9.55;;;;;;;8.29;83.63;102600.78;5050628;28;20049;-61
2021/11/18 06:56:11;;;;;;;28.70;9.75;;;;;;;8.49;85.45;102594.75;5046003;28;20045;-62
2021/11/18 06:58:39;;;;;;;21.98;9.70;;;;;;;8.63;83.22;102599.59;5043646;28;20053;-61
2021/11/18 07:01:08;;;;;;;22.08;10.05;;;;;;;9.29;87.46;102592.16;5035691;28;20056;-61
2021/11/18 07:03:39;;;;;;;26.15;10.25;;;;;;;9.35;83.95;102600.19;5032531;28;20053;-61
2021/11/18 07:06:12;;;;;;;22.00;10.35;;;;;;;8.77;79.50;102606.38;5043061;28;20051;-61
2021/11/18 07:08:43;;;;;;;27.95;9.85;;;;;;;8.60;79.11;102599.28;5051973;28;21445;-61
2021/11/18 07:11:11;;;;;;;26.00;10.32;;;;;;;8.55;78.82;102605.56;5043365;28;20061;-62
2021/11/18 07:13:39;;;;;;;25.10;11.05;;;;;;;8.47;79.32;102614.22;5052188;28;20057;-61
2021/11/18 07:16:10;;;;;;;36.97;19.95;;;;;;;8.71;78.71;102609.31;5040317;28;20037;-62
2021/11/18 07:18:38;;;;;;;26.83;11.48;;;;;;;8.49;78.99;102617.53;5064170;28;20056;-60
2021/11/18 07:21:06;;;;;;;23.77;10.02;;;;;;;8.44;79.47;102616.66;5039890;28;20045;-60
2021/11/18 07:23:35;;;;;;;24.42;10.63;;;;;;;8.46;79.12;102614.47;5051321;28;20053;-62
2021/11/18 07:26:04;;;;;;;26.27;10.88;;;;;;;8.48;79.21;102617.78;5050351;28;20041;-62
2021/11/18 07:28:35;;;;;;;26.83;12.10;;;;;;;8.60;79.05;102618.50;5033801;28;20053;-62
2021/11/18 07:31:05;;;;;;;38.10;11.43;;;;;;;8.40;79.03;102612.75;5017616;28;20060;-61
2021/11/18 07:33:40;;;;;;;29.95;11.63;;;;;;;8.46;79.43;102612.56;5033916;28;20045;-60
2021/11/18 07:36:08;;;;;;;21.80;10.15;;;;;;;8.52;79.12;102605.22;5034168;28;20052;-61
2021/11/18 07:38:37;;;;;;;28.58;11.25;;;;;;;8.64;78.83;102611.44;5037694;28;20496;-61
2021/11/18 07:41:07;;;;;;;27.13;10.82;;;;;;;8.96;78.20;102613.22;5043452;28;20053;-62
2021/11/18 07:43:38;;;;;;;31.98;11.38;;;;;;;8.95;77.70;102606.06;5030972;28;20049;-58
2021/11/18 07:46:45;;;;;;;30.42;11.60;;;;;;;8.53;77.99;102601.38;5043198;28;20053;-61
2021/11/18 07:49:16;;;;;;;30.80;12.30;;;;;;;8.18;80.43;102609.06;5033501;28;20041;-60
2021/11/18 07:51:44;;;;;;;34.47;11.68;;;;;;;8.69;79.15;102604.09;5041837;28;20071;-63
2021/11/18 07:54:15;;;;;;;29.48;11.93;;;;;;;8.85;78.54;102600.47;5036642;28;20045;-62
2021/11/18 07:56:45;;;;;;;29.88;11.75;;;;;;;9.01;77.69;102606.97;5030300;28;20056;-62
2021/11/18 07:59:15;;;;;;;29.30;10.77;;;;;;;8.64;78.10;102603.19;5035665;28;20052;-61
2021/11/18 08:01:45;;;;;;;27.77;10.95;;;;;;;8.98;77.08;102604.72;5048845;28;20084;-61
2021/11/18 08:04:14;;;;;;;27.67;11.18;;;;;;;9.24;76.50;102603.91;5065390;28;20061;-61
2021/11/18 08:06:43;;;;;;;31.30;10.93;;;;;;;9.38;76.21;102607.91;5054767;28;20053;-61
2021/11/18 08:09:13;;;;;;;36.78;12.18;;;;;;;9.23;76.09;102613.25;5037366;28;20411;-61
2021/11/18 08:11:56;;;;;;;34.22;10.65;;;;;;;9.18;76.21;102626.94;5040808;28;20053;-61
2021/11/18 08:14:25;;;;;;;27.73;10.80;;;;;;;9.09;76.58;102637.56;5059728;28;20056;-61
2021/11/18 08:16:54;;;;;;;32.25;11.35;;;;;;;9.09;76.90;102637.56;5031913;28;20037;-61
2021/11/18 08:19:22;;;;;;;32.65;11.13;;;;;;;9.19;76.86;102633.28;5048719;28;20056;-61
2021/11/18 08:21:52;;;;;;;;;;;;;;;9.18;76.67;102632.44;5018630;28;20526;-63
2021/11/18 08:24:24;;;;;;;31.35;10.95;;;;;;;9.33;76.94;102635.34;5025768;28;19921;-61
2021/11/18 08:26:55;;;;;;;44.17;15.77;;;;;;;9.32;76.93;102638.38;5039303;28;20068;-61
2021/11/18 08:29:24;;;;;;;37.10;12.23;;;;;;;9.28;77.34;102629.81;5032630;28;20049;-62
2021/11/18 08:31:56;;;;;;;26.77;10.60;;;;;;;9.41;77.25;102632.16;5037678;28;20041;-61
2021/11/18 08:34:31;;;;;;;32.88;10.10;;;;;;;9.37;77.51;102638.41;5041281;28;20049;-62
2021/11/18 08:37:12;;;;;;;22.45;9.15;;;;;;;9.46;77.17;102632.22;5044118;28;20041;-61
2021/11/18 08:39:42;;;;;;;32.38;10.80;;;;;;;9.47;76.74;102633.84;5049259;28;20049;-62
2021/11/18 08:42:13;;;;;;;35.00;10.93;;;;;;;9.36;77.07;102636.78;5045637;28;20599;-61
2021/11/18 08:44:42;;;;;;;37.22;10.95;;;;;;;9.40;77.38;102643.41;5036055;28;20500;-61
2021/11/18 08:47:13;;;;;;;26.30;10.73;;;;;;;9.31;78.00;102639.47;5036028;28;20045;-61
2021/11/18 08:49:41;;;;;;;30.20;10.53;;;;;;;9.32;77.89;102636.47;5035860;28;20049;-62
2021/11/18 08:52:13;;;;;;;31.73;10.18;;;;;;;9.27;78.18;102644.66;5034695;28;20041;-61
2021/11/18 08:54:52;;;;;;;30.27;10.63;;;;;;;9.45;77.99;102637.97;5036188;28;20349;-63
2021/11/18 08:57:21;;;;;;;31.83;12.35;;;;;;;9.57;77.53;102642.22;5030373;28;20057;-62
2021/11/18 09:00:12;;;;;;;36.00;13.18;;;;;;;9.61;77.50;102653.53;5038839;28;20050;-64
2021/11/18 09:02:53;;;;;;;34.92;11.30;;;;;;;9.66;77.00;102645.34;5038889;28;20057;-62
2021/11/18 09:05:22;;;;;;;29.83;11.38;;;;;;;9.55;76.92;102649.06;5076688;28;20052;-61
2021/11/18 09:07:50;;;;;;;36.43;10.53;;;;;;;9.50;77.50;102651.78;5041654;28;20053;-61
2021/11/18 09:10:18;;;;;;;31.23;10.38;;;;;;;9.44;77.66;102642.63;5051060;28;20064;-61
2021/11/18 09:12:51;;;;;;;34.95;10.65;;;;;;;9.75;76.98;102641.00;5038336;28;20396;-61
2021/11/18 09:15:21;;;;;;;37.38;11.00;;;;;;;9.83;76.52;102640.56;5031232;28;20049;-61
2021/11/18 09:17:51;;;;;;;33.22;10.45;;;;;;;9.79;76.72;102644.91;5039378;28;20054;-62
2021/11/18 09:20:29;;;;;;;27.75;10.05;;;;;;;9.88;76.34;102654.34;5019785;28;20061;-61
2021/11/18 09:22:58;;;;;;;32.58;10.63;;;;;;;9.96;76.01;102653.84;5026069;28;20050;-60
2021/11/18 09:25:35;;;;;;;28.90;10.23;;;;;;;10.08;75.65;102649.88;5047456;28;20052;-60
2021/11/18 09:28:05;;;;;;;32.13;10.75;;;;;;;10.01;75.73;102651.16;5050068;28;20053;-62
2021/11/18 09:30:53;;;;;;;36.15;10.98;;;;;;;10.18;75.50;102644.44;5029897;28;20060;-61
2021/11/18 09:33:22;;;;;;;32.67;9.95;;;;;;;10.02;75.44;102652.81;5037394;28;20047;-60
2021/11/18 09:35:57;;;;;;;34.03;10.07;;;;;;;10.34;75.03;102650.06;5046082;28;20060;-62
2021/11/18 09:38:27;;;;;;;38.90;10.68;;;;;;;10.34;74.60;102655.59;5055505;28;20167;-62
2021/11/18 09:41:12;;;;;;;41.47;10.40;;;;;;;10.31;74.42;102656.09;5044973;28;20041;-61
2021/11/18 09:43:55;;;;;;;34.42;10.48;;;;;;;10.23;74.79;102656.59;5070346;28;20067;-61
2021/11/18 09:47:07;;;;;;;33.20;10.60;;;;;;;9.98;75.90;102659.94;5048046;28;20622;-63
2021/11/18 09:49:50;;;;;;;32.15;9.73;;;;;;;10.35;75.29;102652.56;5052256;28;20053;-62
2021/11/18 09:52:31;;;;;;;40.20;11.70;;;;;;;10.44;74.97;102659.25;5069167;28;20496;-62
2021/11/18 09:55:17;;;;;;;28.65;10.88;;;;;;;10.46;74.83;102657.03;5051551;28;20045;-61
2021/11/18 09:58:00;;;;;;;34.78;10.57;;;;;;;10.22;75.63;102655.75;5044118;28;20053;-61
2021/11/18 10:00:46;;;;;;;;;;;;;;;10.49;75.33;102655.69;5038761;28;20045;-63
2021/11/18 10:03:25;;;;;;;33.95;11.70;;;;;;;10.72;74.49;102660.78;5041111;28;19932;-62
2021/11/18 10:06:01;;;;;;;38.92;11.70;;;;;;;10.69;74.21;102655.78;5053176;28;20049;-60
2021/11/18 10:08:44;;;;;;;27.55;11.13;;;;;;;10.90;73.53;102652.03;5072391;28;20061;-63
2021/11/18 10:11:21;;;;;;;32.83;11.30;;;;;;;10.94;73.09;102658.69;5033226;28;20504;-62
2021/11/18 10:14:12;;;;;;;32.75;11.57;;;;;;;10.83;73.30;102668.00;5042314;28;20056;-61
2021/11/18 10:16:55;;;;;;;37.72;12.25;;;;;;;10.86;73.93;102665.53;5027947;28;20037;-63
2021/11/18 10:19:30;;;;;;;40.00;11.80;;;;;;;11.17;72.61;102669.28;5047398;28;20072;-62
2021/11/18 10:21:59;;;;;;;31.73;12.05;;;;;;;11.08;72.35;102673.66;5037226;28;20086;-65
2021/11/18 10:24:32;;;;;;;32.10;13.05;;;;;;;11.07;72.62;102675.56;5049482;28;20049;-62
2021/11/18 10:27:09;;;;;;;35.90;12.23;;;;;;;10.99;73.22;102681.59;5044541;28;20056;-62
2021/11/18 10:30:03;;;;;;;32.65;11.85;;;;;;;11.06;73.31;102678.59;5054229;28;20045;-62
2021/11/18 10:32:47;;;;;;;31.42;11.95;;;;;;;10.97;73.03;102686.56;5043899;28;20057;-62
2021/11/18 10:35:33;;;;;;;30.13;12.07;;;;;;;10.78;73.86;102679.84;5049249;28;20056;-65
2021/11/18 10:38:15;;;;;;;40.45;12.25;;;;;;;11.16;72.62;102675.88;5047527;28;20057;-61
2021/11/18 10:41:15;;;;;;;34.25;12.13;;;;;;;11.08;72.81;102679.16;5060541;28;20048;-61
2021/11/18 10:43:47;;;;;;;28.33;11.38;;;;;;;11.32;72.37;102677.59;5055558;28;20064;-61
2021/11/18 10:46:21;;;;;;;27.05;10.80;;;;;;;11.33;71.94;102679.28;5078922;28;20057;-61
2021/11/18 10:49:10;;;;;;;34.80;12.02;;;;;;;11.35;72.10;102686.16;5050583;28;20056;-61
2021/11/18 10:51:41;;;;;;;30.95;11.35;;;;;;;11.38;71.86;102686.72;5056575;28;20148;-61
2021/11/18 10:54:12;;;;;;;34.40;11.23;;;;;;;11.27;72.34;102686.69;5043704;28;20064;-66
2021/11/18 10:56:39;;;;;;;36.63;12.68;;;;;;;11.23;72.39;102676.44;5068240;28;20056;-62
2021/11/18 10:59:31;;;;;;;36.58;11.95;;;;;;;11.51;72.05;102675.16;5046408;28;20056;-61
2021/11/18 11:01:59;;;;;;;35.67;12.25;;;;;;;11.11;72.18;102678.63;5065488;28;20048;-63
2021/11/18 11:04:38;;;;;;;36.22;13.10;;;;;;;10.81;74.23;102678.50;5065993;28;20052;-62
2021/11/18 11:07:09;;;;;;;33.00;12.90;;;;;;;11.21;73.40;102676.72;5030484;28;20048;-62
2021/11/18 11:09:40;;;;;;;33.95;11.75;;;;;;;11.27;72.41;102664.63;5043370;28;20068;-61
2021/11/18 11:12:30;;;;;;;37.72;12.40;;;;;;;11.51;72.00;102676.00;5055321;28;20045;-63
2021/11/18 11:15:41;;;;;;;35.67;12.85;;;;;;;11.30;72.42;102682.53;5045285;28;20053;-63
2021/11/18 11:18:47;;;;;;;33.00;13.63;;;;;;;11.19;72.23;102670.66;5072894;28;20052;-63
2021/11/18 11:21:23;;;;;;;36.88;14.13;;;;;;;11.56;73.53;102677.97;5046256;28;20053;-64
2021/11/18 11:24:19;;;;;;;33.10;9.77;;;;;;;12.20;75.27;102668.13;5044324;28;20044;-62
2021/11/18 11:27:29;;;;;;;32.92;10.27;;;;;;;12.41;72.19;102664.22;5039766;28;20045;-62
2021/11/18 11:30:19;;;;;;;27.50;11.17;;;;;;;12.73;69.11;102658.34;5041777;28;20168;-64
2021/11/18 11:33:12;;;;;;;76.82;12.57;;;;;;;17.06;59.87;102652.25;5041881;28;20056;-61
2021/11/18 11:35:46;;;;;;;35.35;11.45;;;;;;;16.05;56.55;102647.72;5047471;28;20048;-63
2021/11/18 11:38:31;;;;;;;30.63;9.98;;;;;;;15.52;62.64;102645.22;5046862;28;20404;-63
2021/11/18 11:41:36;;;;;;;26.17;8.27;;;;;;;15.88;61.13;102641.91;5052340;28;20057;-64
2021/11/18 11:44:17;;;;;;;32.03;10.32;;;;;;;14.65;61.89;102640.19;5035397;28;20040;-66
2021/11/18 11:47:00;;;;;;;24.88;9.68;;;;;;;15.35;60.33;102641.25;5035982;28;20045;-66
2021/11/18 11:49:46;;;;;;;35.67;9.68;;;;;;;15.93;59.52;102647.38;5043318;28;20057;-66